createdAt,value
2018-08-12T00:01:44.780Z,20.11
2018-08-12T00:04:13.026Z,20.06
2018-08-12T00:06:41.155Z,20.05
2018-08-12T00:09:10.204Z,20.04
2018-08-12T00:11:38.351Z,19.95
2018-08-12T00:14:07.067Z,19.93
2018-08-12T00:16:35.681Z,19.96
2018-08-12T00:19:04.023Z,19.90
2018-08-12T00:21:32.606Z,19.94
2018-08-12T00:24:00.811Z,19.89
2018-08-12T00:26:29.302Z,19.82
2018-08-12T00:28:57.535Z,19.76
2018-08-12T00:31:25.811Z,19.75
2018-08-12T00:33:53.904Z,19.81
2018-08-12T00:36:22.095Z,19.72
2018-08-12T00:38:50.234Z,19.65
2018-08-12T00:41:18.338Z,19.54
2018-08-12T00:43:46.556Z,19.51
2018-08-12T00:46:14.739Z,19.55
2018-08-12T00:48:42.854Z,19.53
2018-08-12T00:51:11.048Z,19.42
2018-08-12T00:53:39.199Z,19.39
2018-08-12T00:56:07.330Z,19.38
2018-08-12T00:58:35.815Z,19.36
2018-08-12T01:01:03.964Z,19.40
2018-08-12T01:03:32.512Z,19.37
2018-08-12T01:06:00.652Z,19.31
2018-08-12T01:08:28.926Z,19.23
2018-08-12T01:10:57.029Z,19.17
2018-08-12T01:13:25.294Z,19.17
2018-08-12T01:15:53.553Z,19.15
2018-08-12T01:18:21.715Z,19.08
2018-08-12T01:20:49.927Z,19.01
2018-08-12T01:23:18.063Z,19.03
2018-08-12T01:25:46.326Z,19.01
2018-08-12T01:28:14.435Z,19.00
2018-08-12T01:30:42.620Z,18.96
2018-08-12T01:33:10.735Z,18.92
2018-08-12T01:35:38.851Z,18.88
2018-08-12T01:38:06.967Z,18.72
2018-08-12T01:40:35.254Z,18.69
2018-08-12T01:43:03.593Z,18.68
2018-08-12T01:45:31.758Z,18.66
2018-08-12T01:47:59.859Z,18.66
2018-08-12T01:50:28.007Z,18.57
2018-08-12T01:52:56.166Z,18.54
2018-08-12T01:55:24.283Z,18.51
2018-08-12T01:57:52.414Z,18.50
2018-08-12T02:00:21.867Z,18.48
2018-08-12T02:02:50.524Z,18.45
2018-08-12T02:05:19.107Z,18.38
2018-08-12T02:07:47.792Z,18.31
2018-08-12T02:10:15.902Z,18.29
2018-08-12T02:12:44.006Z,18.30
2018-08-12T02:15:12.527Z,18.31
2018-08-12T02:17:41.200Z,18.29
2018-08-12T02:20:10.181Z,18.22
2018-08-12T02:22:39.174Z,18.15
2018-08-12T02:25:08.143Z,18.12
2018-08-12T02:27:36.413Z,18.13
2018-08-12T02:30:05.230Z,18.06
2018-08-12T02:32:33.497Z,18.03
2018-08-12T02:35:01.629Z,17.96
2018-08-12T02:37:30.190Z,17.98
2018-08-12T02:39:58.519Z,17.94
2018-08-12T02:42:26.745Z,17.89
2018-08-12T02:44:55.109Z,17.90
2018-08-12T02:47:23.219Z,17.85
2018-08-12T02:49:51.690Z,17.84
2018-08-12T02:52:20.002Z,17.83
2018-08-12T02:54:48.111Z,17.80
2018-08-12T02:57:16.294Z,17.76
2018-08-12T02:59:44.421Z,17.73
2018-08-12T03:02:12.759Z,17.71
2018-08-12T03:04:41.276Z,17.65
2018-08-12T03:07:09.434Z,17.65
2018-08-12T03:09:37.591Z,17.57
2018-08-12T03:12:06.103Z,17.58
2018-08-12T03:14:34.669Z,17.53
2018-08-12T03:17:02.818Z,17.49
2018-08-12T03:19:30.999Z,17.49
2018-08-12T03:21:59.115Z,17.52
2018-08-12T03:24:27.263Z,17.45
2018-08-12T03:26:55.786Z,17.29
2018-08-12T03:29:24.028Z,17.24
2018-08-12T03:31:52.430Z,17.24
2018-08-12T03:34:20.476Z,17.19
2018-08-12T03:36:48.591Z,17.23
2018-08-12T03:39:16.804Z,17.15
2018-08-12T03:41:44.958Z,17.05
2018-08-12T03:44:13.090Z,17.09
2018-08-12T03:46:41.336Z,17.10
2018-08-12T03:49:09.552Z,17.15
2018-08-12T03:51:37.813Z,17.11
2018-08-12T03:54:06.170Z,17.04
2018-08-12T03:56:34.486Z,17.00
2018-08-12T03:59:02.621Z,16.96
2018-08-12T04:01:30.855Z,16.90
2018-08-12T04:03:58.994Z,16.83
2018-08-12T04:06:27.116Z,16.84
2018-08-12T04:08:55.437Z,16.85
2018-08-12T04:11:23.611Z,16.86
2018-08-12T04:13:51.760Z,16.83
2018-08-12T04:16:19.887Z,16.84
2018-08-12T04:18:48.041Z,16.85
2018-08-12T04:21:16.354Z,16.80
2018-08-12T04:23:44.470Z,16.79
2018-08-12T04:26:12.614Z,16.74
2018-08-12T04:28:40.752Z,16.73
2018-08-12T04:31:08.870Z,16.74
2018-08-12T04:33:37.425Z,16.77
2018-08-12T04:36:05.646Z,16.73
2018-08-12T04:38:33.787Z,16.65
2018-08-12T04:41:01.899Z,16.64
2018-08-12T04:43:30.002Z,16.64
2018-08-12T04:45:58.199Z,16.64
2018-08-12T04:48:26.307Z,16.68
2018-08-12T04:50:54.480Z,16.71
2018-08-12T04:53:22.626Z,16.77
2018-08-12T04:55:50.791Z,16.71
2018-08-12T04:58:19.194Z,16.72
2018-08-12T05:00:47.337Z,16.69
2018-08-12T05:03:15.430Z,16.70
2018-08-12T05:05:43.622Z,16.63
2018-08-12T05:08:11.834Z,16.77
2018-08-12T05:10:40.184Z,16.87
2018-08-12T05:13:08.520Z,16.83
2018-08-12T05:15:36.638Z,16.84
2018-08-12T05:18:04.852Z,16.78
2018-08-12T05:20:33.290Z,16.79
2018-08-12T05:23:01.579Z,16.88
2018-08-12T05:25:29.687Z,16.94
2018-08-12T05:27:57.870Z,16.93
2018-08-12T05:30:26.094Z,16.97
2018-08-12T05:32:54.214Z,17.03
2018-08-12T05:35:22.568Z,17.13
2018-08-12T05:37:50.800Z,17.32
2018-08-12T05:40:18.906Z,17.35
2018-08-12T05:42:47.044Z,17.38
2018-08-12T05:45:15.182Z,17.49
2018-08-12T05:47:43.429Z,17.58
2018-08-12T05:50:11.674Z,17.70
2018-08-12T05:52:39.819Z,17.83
2018-08-12T05:55:08.655Z,17.92
2018-08-12T05:57:36.887Z,17.94
2018-08-12T06:00:07.027Z,17.99
2018-08-12T06:02:35.419Z,18.03
2018-08-12T06:05:03.537Z,18.05
2018-08-12T06:07:31.728Z,18.08
2018-08-12T06:09:59.954Z,18.15
2018-08-12T06:12:28.199Z,18.19
2018-08-12T06:14:56.431Z,18.28
2018-08-12T06:17:24.774Z,18.32
2018-08-12T06:19:52.864Z,18.35
2018-08-12T06:22:20.994Z,18.42
2018-08-12T06:24:49.165Z,18.50
2018-08-12T06:27:17.841Z,18.57
2018-08-12T06:29:46.083Z,18.63
2018-08-12T06:32:14.448Z,18.71
2018-08-12T06:34:42.784Z,18.77
2018-08-12T06:37:11.260Z,18.87
2018-08-12T06:39:39.458Z,18.94
2018-08-12T06:42:07.811Z,18.93
2018-08-12T06:44:36.148Z,19.03
2018-08-12T06:47:04.294Z,19.11
2018-08-12T06:49:32.425Z,19.13
2018-08-12T06:52:00.585Z,19.19
2018-08-12T06:54:28.777Z,19.27
2018-08-12T06:56:56.884Z,19.38
2018-08-12T06:59:24.992Z,19.45
2018-08-12T07:01:53.100Z,19.44
2018-08-12T07:04:21.326Z,19.47
2018-08-12T07:06:49.811Z,19.55
2018-08-12T07:09:17.959Z,19.60
2018-08-12T07:11:46.091Z,19.67
2018-08-12T07:14:14.328Z,19.73
2018-08-12T07:16:42.574Z,19.78
2018-08-12T07:19:11.303Z,19.86
2018-08-12T07:21:39.450Z,19.95
2018-08-12T07:24:07.628Z,19.94
2018-08-12T07:26:35.758Z,20.00
2018-08-12T07:29:03.907Z,20.06
2018-08-12T07:31:32.742Z,20.09
2018-08-12T07:34:01.042Z,20.18
2018-08-12T07:36:29.260Z,20.24
2018-08-12T07:38:57.805Z,20.28
2018-08-12T07:41:26.069Z,20.32
2018-08-12T07:43:54.198Z,20.39
2018-08-12T07:46:22.391Z,20.49
2018-08-12T07:48:50.565Z,20.53
2018-08-12T07:51:19.029Z,20.58
2018-08-12T07:53:47.154Z,20.58
2018-08-12T07:56:15.427Z,20.63
2018-08-12T07:58:43.993Z,20.63
2018-08-12T08:01:12.375Z,20.66
2018-08-12T08:03:40.610Z,20.79
2018-08-12T08:06:08.745Z,20.84
2018-08-12T08:08:36.831Z,20.92
2018-08-12T08:11:05.174Z,20.99
2018-08-12T08:13:33.563Z,21.05
2018-08-12T08:16:01.706Z,21.10
2018-08-12T08:18:29.807Z,21.14
2018-08-12T08:20:57.969Z,21.19
2018-08-12T08:23:26.134Z,21.24
2018-08-12T08:25:54.397Z,21.29
2018-08-12T08:28:22.438Z,21.33
2018-08-12T08:30:50.562Z,21.38
2018-08-12T08:33:18.816Z,21.46
2018-08-12T08:35:46.919Z,21.49
2018-08-12T08:38:15.185Z,21.53
2018-08-12T08:40:43.474Z,21.58
2018-08-12T08:43:11.594Z,21.62
2018-08-12T08:45:39.854Z,21.65
2018-08-12T08:48:08.075Z,21.69
2018-08-12T08:50:36.248Z,21.74
2018-08-12T08:53:04.383Z,21.78
2018-08-12T08:55:32.567Z,21.80
2018-08-12T08:58:00.627Z,21.83
2018-08-12T09:00:28.822Z,21.87
2018-08-12T09:02:57.023Z,21.90
2018-08-12T09:05:25.198Z,21.93
2018-08-12T09:07:53.501Z,21.95
2018-08-12T09:10:21.778Z,21.98
2018-08-12T09:12:49.962Z,22.00
2018-08-12T09:15:19.256Z,22.05
2018-08-12T09:17:48.025Z,22.09
2018-08-12T09:20:17.498Z,22.10
2018-08-12T09:22:45.662Z,22.12
2018-08-12T09:25:18.963Z,22.15
2018-08-12T09:27:47.082Z,22.18
2018-08-12T09:30:17.406Z,22.20
2018-08-12T09:32:46.270Z,22.22
2018-08-12T09:35:14.697Z,22.26
2018-08-12T09:37:43.048Z,22.30
2018-08-12T09:40:14.160Z,22.35
2018-08-12T09:42:43.379Z,22.39
2018-08-12T09:45:13.745Z,22.42
2018-08-12T09:47:41.865Z,22.46
2018-08-12T09:50:10.966Z,22.47
2018-08-12T09:52:39.442Z,22.51
2018-08-12T09:55:08.766Z,22.53
2018-08-12T09:57:36.949Z,22.52
2018-08-12T10:00:08.874Z,22.59
2018-08-12T10:02:37.239Z,22.65
2018-08-12T10:05:06.109Z,22.73
2018-08-12T10:07:34.348Z,22.84
2018-08-12T10:10:03.400Z,22.88
2018-08-12T10:12:31.502Z,22.94
2018-08-12T10:14:59.627Z,22.98
2018-08-12T10:17:31.701Z,23.03
2018-08-12T10:19:59.843Z,23.06
2018-08-12T10:22:27.986Z,23.10
2018-08-12T10:24:56.111Z,23.14
2018-08-12T10:27:24.541Z,23.15
2018-08-12T10:29:52.695Z,23.14
2018-08-12T10:32:20.921Z,23.17
2018-08-12T10:34:49.170Z,23.19
2018-08-12T10:37:17.283Z,23.21
2018-08-12T10:39:45.595Z,23.23
2018-08-12T10:42:13.822Z,23.21
2018-08-12T10:44:42.092Z,23.20
2018-08-12T10:47:10.218Z,23.23
2018-08-12T10:49:38.377Z,23.29
2018-08-12T10:52:06.552Z,23.32
2018-08-12T10:54:34.768Z,23.31
2018-08-12T10:57:03.006Z,23.30
2018-08-12T10:59:31.217Z,23.35
2018-08-12T11:01:59.290Z,23.36
2018-08-12T11:04:27.611Z,23.41
2018-08-12T11:06:55.719Z,23.47
2018-08-12T11:09:23.978Z,23.51
2018-08-12T11:11:52.119Z,23.55
2018-08-12T11:14:20.394Z,23.60
2018-08-12T11:16:48.670Z,23.63
2018-08-12T11:19:16.793Z,23.66
2018-08-12T11:21:44.960Z,23.69
2018-08-12T11:24:13.162Z,23.73
2018-08-12T11:26:41.281Z,23.74
2018-08-12T11:29:09.570Z,23.76
2018-08-12T11:31:37.674Z,23.77
2018-08-12T11:34:05.843Z,23.82
2018-08-12T11:36:34.827Z,23.80
2018-08-12T11:39:02.966Z,23.80
2018-08-12T11:41:31.086Z,23.82
2018-08-12T11:43:59.330Z,23.80
2018-08-12T11:46:27.478Z,23.79
2018-08-12T11:48:55.627Z,23.83
2018-08-12T11:51:23.947Z,23.94
2018-08-12T11:53:52.073Z,23.94
2018-08-12T11:56:20.226Z,23.91
2018-08-12T11:58:48.374Z,23.89
2018-08-12T12:01:16.523Z,23.87
2018-08-12T12:03:44.652Z,23.86
2018-08-12T12:06:13.201Z,23.87
2018-08-12T12:08:41.328Z,23.91
2018-08-12T12:11:09.536Z,23.90
2018-08-12T12:13:37.638Z,23.88
2018-08-12T12:16:05.933Z,23.87
2018-08-12T12:18:34.073Z,23.90
2018-08-12T12:21:02.530Z,23.92
2018-08-12T12:23:30.682Z,23.92
2018-08-12T12:25:58.828Z,23.92
2018-08-12T12:28:27.066Z,23.94
2018-08-12T12:30:55.215Z,23.92
2018-08-12T12:33:23.363Z,23.91
2018-08-12T12:35:51.498Z,23.94
2018-08-12T12:38:19.620Z,23.95
2018-08-12T12:40:47.770Z,23.99
2018-08-12T12:43:15.918Z,24.00
2018-08-12T12:45:44.461Z,24.00
2018-08-12T12:48:12.842Z,24.01
2018-08-12T12:50:41.022Z,24.05
2018-08-12T12:53:09.136Z,24.08
2018-08-12T12:55:37.260Z,24.13
2018-08-12T12:58:05.432Z,24.16
2018-08-12T13:00:33.799Z,24.20
2018-08-12T13:03:02.075Z,24.23
2018-08-12T13:05:30.220Z,24.24
2018-08-12T13:07:58.384Z,24.29
2018-08-12T13:10:26.594Z,24.33
2018-08-12T13:12:54.752Z,24.35
2018-08-12T13:15:22.886Z,24.45
2018-08-12T13:17:51.030Z,24.49
2018-08-12T13:20:20.405Z,24.47
2018-08-12T13:22:49.202Z,24.59
2018-08-12T13:25:18.914Z,24.58
2018-08-12T13:27:47.294Z,24.56
2018-08-12T13:30:16.701Z,24.63
2018-08-12T13:32:46.024Z,24.65
2018-08-12T13:35:14.306Z,24.60
2018-08-12T13:37:42.531Z,24.57
2018-08-12T13:40:12.509Z,24.60
2018-08-12T13:42:41.399Z,24.60
2018-08-12T13:45:10.812Z,24.64
2018-08-12T13:47:39.418Z,24.63
2018-08-12T13:50:10.153Z,24.68
2018-08-12T13:52:38.277Z,24.71
2018-08-12T13:55:06.734Z,24.70
2018-08-12T13:57:35.345Z,24.71
2018-08-12T14:00:03.506Z,24.72
2018-08-12T14:02:31.659Z,24.70
2018-08-12T14:04:59.777Z,24.68
2018-08-12T14:07:27.963Z,24.71
2018-08-12T14:09:56.271Z,24.70
2018-08-12T14:12:24.395Z,24.68
2018-08-12T14:14:52.539Z,24.68
2018-08-12T14:17:20.765Z,24.65
2018-08-12T14:19:48.965Z,24.71
2018-08-12T14:22:17.279Z,24.71
2018-08-12T14:24:45.465Z,24.71
2018-08-12T14:27:13.746Z,24.66
2018-08-12T14:29:42.050Z,24.70
2018-08-12T14:32:10.302Z,24.72
2018-08-12T14:34:38.866Z,24.73
2018-08-12T14:37:07.094Z,24.72
2018-08-12T14:39:35.233Z,24.71
2018-08-12T14:42:03.369Z,24.70
2018-08-12T14:44:31.570Z,24.70
2018-08-12T14:46:59.819Z,24.71
2018-08-12T14:49:27.935Z,24.71
2018-08-12T14:51:56.181Z,24.77
2018-08-12T14:54:24.343Z,24.82
2018-08-12T14:56:52.475Z,24.77
2018-08-12T14:59:20.670Z,24.73
2018-08-12T15:01:48.801Z,24.75
2018-08-12T15:04:17.382Z,24.75
2018-08-12T15:06:46.339Z,24.77
2018-08-12T15:09:14.474Z,24.76
2018-08-12T15:11:42.778Z,24.79
2018-08-12T15:14:10.913Z,24.82
2018-08-12T15:16:39.318Z,24.80
2018-08-12T15:19:07.430Z,24.77
2018-08-12T15:21:35.576Z,24.79
2018-08-12T15:24:03.739Z,24.80
2018-08-12T15:26:31.897Z,24.82
2018-08-12T15:29:00.114Z,24.80
2018-08-12T15:31:28.333Z,24.82
2018-08-12T15:33:56.497Z,24.86
2018-08-12T15:36:24.812Z,24.91
2018-08-12T15:38:52.942Z,24.89
2018-08-12T15:41:21.192Z,24.90
2018-08-12T15:43:49.342Z,24.92
2018-08-12T15:46:17.498Z,24.90
2018-08-12T15:48:45.634Z,24.91
2018-08-12T15:51:13.832Z,24.99
2018-08-12T15:53:41.951Z,25.00
2018-08-12T15:56:10.194Z,24.99
2018-08-12T15:58:38.376Z,25.00
2018-08-12T16:01:06.754Z,24.97
2018-08-12T16:03:34.997Z,24.98
2018-08-12T16:06:03.303Z,24.99
2018-08-12T16:08:31.454Z,24.99
2018-08-12T16:10:59.592Z,25.04
2018-08-12T16:13:27.830Z,25.04
2018-08-12T16:15:56.039Z,25.06
2018-08-12T16:18:24.499Z,25.12
2018-08-12T16:20:52.643Z,25.14
2018-08-12T16:23:20.900Z,25.25
2018-08-12T16:25:49.038Z,25.40
2018-08-12T16:28:17.178Z,25.52
2018-08-12T16:30:45.599Z,25.59
2018-08-12T16:33:13.760Z,25.63
2018-08-12T16:35:42.463Z,25.67
2018-08-12T16:38:10.651Z,25.73
2018-08-12T16:40:38.895Z,25.72
2018-08-12T16:43:07.362Z,25.71
2018-08-12T16:45:35.554Z,25.71
2018-08-12T16:48:03.705Z,25.74
2018-08-12T16:50:32.120Z,25.73
2018-08-12T16:53:00.240Z,25.71
2018-08-12T16:55:28.638Z,25.70
2018-08-12T16:57:56.870Z,25.68
2018-08-12T17:00:26.794Z,25.69
2018-08-12T17:02:54.962Z,25.70
2018-08-12T17:05:23.791Z,25.70
2018-08-12T17:07:52.160Z,25.74
2018-08-12T17:10:20.818Z,25.78
2018-08-12T17:12:49.037Z,25.83
2018-08-12T17:15:19.790Z,25.82
2018-08-12T17:17:48.623Z,25.79
2018-08-12T17:20:17.958Z,25.76
2018-08-12T17:22:46.738Z,25.79
2018-08-12T17:25:15.035Z,25.80
2018-08-12T17:27:43.420Z,25.81
2018-08-12T17:30:13.293Z,25.82
2018-08-12T17:32:41.464Z,25.86
2018-08-12T17:35:10.283Z,25.85
2018-08-12T17:37:38.991Z,25.86
2018-08-12T17:40:09.166Z,25.87
2018-08-12T17:42:37.450Z,25.87
2018-08-12T17:45:06.972Z,25.91
2018-08-12T17:47:35.143Z,25.90
2018-08-12T17:50:03.370Z,25.86
2018-08-12T17:52:31.607Z,25.84
2018-08-12T17:54:59.703Z,25.84
2018-08-12T17:57:27.958Z,25.86
2018-08-12T17:59:56.153Z,25.85
2018-08-12T18:02:24.556Z,25.82
2018-08-12T18:04:52.795Z,25.80
2018-08-12T18:07:21.027Z,25.81
2018-08-12T18:09:49.327Z,25.80
2018-08-12T18:12:17.664Z,25.78
2018-08-12T18:14:45.778Z,25.78
2018-08-12T18:17:14.091Z,25.79
2018-08-12T18:19:42.235Z,25.79
2018-08-12T18:22:10.554Z,25.78
2018-08-12T18:24:38.857Z,25.75
2018-08-12T18:27:07.104Z,25.74
2018-08-12T18:29:35.363Z,25.73
2018-08-12T18:32:04.068Z,25.73
2018-08-12T18:34:32.462Z,25.79
2018-08-12T18:37:03.410Z,25.93
2018-08-12T18:39:31.566Z,26.03
2018-08-12T18:41:59.800Z,26.13
2018-08-12T18:44:27.914Z,26.20
2018-08-12T18:46:56.092Z,26.27
2018-08-12T18:49:24.455Z,26.30
2018-08-12T18:51:52.714Z,26.36
2018-08-12T18:54:21.276Z,26.48
2018-08-12T18:56:49.402Z,26.55
2018-08-12T18:59:17.863Z,26.64
2018-08-12T19:01:46.079Z,26.75
2018-08-12T19:04:14.246Z,26.82
2018-08-12T19:06:42.486Z,26.88
2018-08-12T19:09:11.538Z,26.94
2018-08-12T19:11:39.780Z,26.89
2018-08-12T19:14:08.295Z,26.81
2018-08-12T19:16:36.630Z,26.81
2018-08-12T19:19:05.127Z,26.89
2018-08-12T19:21:33.342Z,26.86
2018-08-12T19:24:01.687Z,26.84
2018-08-12T19:26:30.235Z,26.82
2018-08-12T19:28:58.547Z,26.82
2018-08-12T19:31:27.085Z,26.81
2018-08-12T19:33:55.398Z,26.79
2018-08-12T19:36:23.842Z,26.79
2018-08-12T19:38:52.067Z,26.75
2018-08-12T19:41:20.254Z,26.72
2018-08-12T19:43:48.497Z,26.69
2018-08-12T19:46:16.619Z,26.65
2018-08-12T19:48:45.047Z,26.63
2018-08-12T19:51:14.370Z,26.60
2018-08-12T19:53:43.182Z,26.57
2018-08-12T19:56:12.060Z,26.53
2018-08-12T19:58:40.375Z,26.51
2018-08-12T20:01:08.626Z,26.48
2018-08-12T20:03:36.750Z,26.46
2018-08-12T20:06:05.262Z,26.44
2018-08-12T20:08:33.407Z,26.42
2018-08-12T20:11:02.594Z,26.41
2018-08-12T20:13:30.818Z,26.38
2018-08-12T20:15:59.223Z,26.37
2018-08-12T20:18:27.495Z,26.35
2018-08-12T20:20:55.702Z,26.33
2018-08-12T20:23:24.687Z,26.32
2018-08-12T20:25:53.040Z,26.30
2018-08-12T20:28:21.497Z,26.28
2018-08-12T20:30:49.615Z,26.27
2018-08-12T20:33:17.853Z,26.24
2018-08-12T20:35:45.942Z,26.23
2018-08-12T20:38:14.185Z,26.22
2018-08-12T20:40:42.499Z,26.20
2018-08-12T20:43:10.606Z,26.20
2018-08-12T20:45:38.764Z,26.18
2018-08-12T20:48:06.975Z,26.16
2018-08-12T20:50:35.095Z,26.15
2018-08-12T20:53:03.303Z,26.09
2018-08-12T20:55:31.402Z,26.03
2018-08-12T20:57:59.967Z,25.93
2018-08-12T21:00:28.133Z,25.80
2018-08-12T21:02:56.379Z,25.69
2018-08-12T21:05:25.129Z,25.61
2018-08-12T21:07:53.222Z,25.55
2018-08-12T21:10:21.498Z,25.48
2018-08-12T21:12:49.684Z,25.43
2018-08-12T21:15:17.787Z,25.37
2018-08-12T21:17:46.324Z,25.33
2018-08-12T21:20:14.447Z,25.27
2018-08-12T21:22:42.584Z,25.19
2018-08-12T21:25:10.808Z,25.16
2018-08-12T21:27:39.030Z,25.13
2018-08-12T21:30:07.550Z,25.11
2018-08-12T21:32:35.825Z,25.07
2018-08-12T21:35:03.976Z,25.04
2018-08-12T21:37:32.158Z,25.01
2018-08-12T21:40:24.727Z,24.97
2018-08-12T21:42:53.022Z,24.89
2018-08-12T21:45:21.210Z,24.85
2018-08-12T21:47:49.328Z,24.81
2018-08-12T21:50:17.458Z,24.79
2018-08-12T21:52:46.195Z,24.72
2018-08-12T21:55:14.511Z,24.67
2018-08-12T21:57:42.807Z,24.63
2018-08-12T22:00:13.735Z,24.61
2018-08-12T22:02:46.520Z,24.57
2018-08-12T22:05:15.012Z,24.41
2018-08-12T22:07:43.198Z,24.47
2018-08-12T22:10:11.487Z,24.43
2018-08-12T22:12:39.731Z,24.41
2018-08-12T22:15:08.543Z,24.37
2018-08-12T22:17:37.049Z,24.33
2018-08-12T22:20:05.913Z,24.30
2018-08-12T22:22:34.569Z,24.24
2018-08-12T22:25:02.691Z,24.23
2018-08-12T22:27:30.987Z,24.18
2018-08-12T22:29:59.247Z,24.18
2018-08-12T22:32:27.614Z,24.16
2018-08-12T22:34:58.687Z,24.13
2018-08-12T22:37:26.967Z,24.13
2018-08-12T22:39:55.102Z,24.14
2018-08-12T22:42:23.223Z,24.17
2018-08-12T22:44:52.347Z,24.23
2018-08-12T22:47:20.543Z,24.29
2018-08-12T22:49:48.752Z,24.35
2018-08-12T22:52:16.939Z,24.39
2018-08-12T22:54:45.051Z,24.42
2018-08-12T22:57:13.454Z,24.44
2018-08-12T22:59:41.719Z,24.46
2018-08-12T23:02:10.162Z,24.48
2018-08-12T23:04:38.286Z,24.50
2018-08-12T23:07:06.482Z,24.51
2018-08-12T23:09:34.779Z,24.52
2018-08-12T23:12:02.923Z,24.53
2018-08-12T23:14:31.040Z,24.52
2018-08-12T23:17:00.918Z,24.54
2018-08-12T23:19:29.303Z,24.55
2018-08-12T23:21:57.698Z,24.55
2018-08-12T23:24:25.794Z,24.57
2018-08-12T23:26:54.100Z,24.56
2018-08-12T23:29:22.258Z,24.56
2018-08-12T23:31:50.522Z,24.57
2018-08-12T23:34:19.012Z,24.58
2018-08-12T23:36:47.100Z,24.58
2018-08-12T23:39:15.490Z,24.60
2018-08-12T23:41:43.660Z,24.59
2018-08-12T23:44:11.810Z,24.61
2018-08-12T23:46:40.010Z,24.60
2018-08-12T23:49:08.138Z,24.62
2018-08-12T23:51:36.400Z,24.62
2018-08-12T23:54:04.654Z,24.62
2018-08-12T23:56:32.751Z,24.60
2018-08-12T23:59:00.841Z,24.59
